createdAt,value
2022-09-15T00:00:00.110Z,65.74
2022-09-15T00:02:31.667Z,65.76
2022-09-15T00:05:03.055Z,65.65
2022-09-15T00:07:34.213Z,65.77
2022-09-15T00:10:05.617Z,65.84
2022-09-15T00:12:36.916Z,65.97
2022-09-15T00:15:09.848Z,66.03
2022-09-15T00:17:40.682Z,66.01
2022-09-15T00:20:12.821Z,66.03
2022-09-15T00:22:44.088Z,66.05
2022-09-15T00:25:16.434Z,66.15
2022-09-15T00:27:47.350Z,66.17
2022-09-15T00:30:19.137Z,66.29
2022-09-15T00:32:50.263Z,66.44
2022-09-15T00:35:21.340Z,66.47
2022-09-15T00:37:52.407Z,66.50
2022-09-15T00:40:23.344Z,66.55
2022-09-15T00:42:54.206Z,66.55
2022-09-15T00:45:25.104Z,66.71
2022-09-15T00:47:56.319Z,66.71
2022-09-15T00:50:27.595Z,66.73
2022-09-15T00:53:01.738Z,66.80
2022-09-15T00:55:36.851Z,66.69
2022-09-15T00:58:08.845Z,66.75
2022-09-15T01:00:44.250Z,66.79
2022-09-15T01:03:15.892Z,66.79
2022-09-15T01:05:53.827Z,66.82
2022-09-15T01:08:34.211Z,66.80
2022-09-15T01:11:05.220Z,66.87
2022-09-15T01:13:36.048Z,66.90
2022-09-15T01:19:23.469Z,66.97
2022-09-15T01:22:00.048Z,66.96
2022-09-15T01:24:46.387Z,67.06
2022-09-15T01:27:42.111Z,67.00
2022-09-15T01:30:16.520Z,66.95
2022-09-15T01:33:21.644Z,67.11
2022-09-15T01:36:13.049Z,67.19
2022-09-15T01:39:04.493Z,67.32
2022-09-15T01:41:43.141Z,67.35
2022-09-15T01:44:19.328Z,67.40
2022-09-15T01:46:55.699Z,67.47
2022-09-15T01:49:31.163Z,67.42
2022-09-15T01:52:02.631Z,67.37
2022-09-15T01:54:40.281Z,67.44
2022-09-15T01:57:11.363Z,67.45
2022-09-15T01:59:42.305Z,67.53
2022-09-15T02:02:17.074Z,67.60
2022-09-15T02:04:52.137Z,67.78
2022-09-15T02:07:38.396Z,67.84
2022-09-15T02:10:14.445Z,67.98
2022-09-15T02:12:51.058Z,67.92
2022-09-15T02:15:29.158Z,67.85
2022-09-15T02:18:03.699Z,67.92
2022-09-15T02:20:43.942Z,67.89
2022-09-15T02:23:20.651Z,68.07
2022-09-15T02:25:55.238Z,67.93
2022-09-15T02:28:32.201Z,68.11
2022-09-15T02:31:07.019Z,68.13
2022-09-15T02:33:41.334Z,68.17
2022-09-15T02:36:13.808Z,68.28
2022-09-15T02:38:48.467Z,68.25
2022-09-15T02:41:19.615Z,68.23
2022-09-15T02:43:51.631Z,68.26
2022-09-15T02:46:24.717Z,68.35
2022-09-15T02:48:57.042Z,68.31
2022-09-15T02:51:27.833Z,68.34
2022-09-15T02:53:58.658Z,68.42
2022-09-15T02:56:29.643Z,68.46
2022-09-15T02:59:00.506Z,68.40
2022-09-15T03:01:34.696Z,68.33
2022-09-15T03:04:06.886Z,68.59
2022-09-15T03:06:37.678Z,68.58
2022-09-15T03:09:09.708Z,68.61
2022-09-15T03:11:40.527Z,68.69
2022-09-15T03:14:11.995Z,68.50
2022-09-15T03:16:43.125Z,68.49
2022-09-15T03:19:13.993Z,68.49
2022-09-15T03:21:44.806Z,68.54
2022-09-15T03:24:16.317Z,68.47
2022-09-15T03:26:50.204Z,68.51
2022-09-15T03:29:21.030Z,68.58
2022-09-15T03:31:51.920Z,68.62
2022-09-15T03:34:22.805Z,68.60
2022-09-15T03:36:53.666Z,68.73
2022-09-15T03:39:24.590Z,68.77
2022-09-15T03:41:55.511Z,68.88
2022-09-15T03:44:26.450Z,68.85
2022-09-15T03:46:58.315Z,68.91
2022-09-15T03:49:29.189Z,68.88
2022-09-15T03:52:00.548Z,68.81
2022-09-15T03:54:31.882Z,68.95
2022-09-15T03:57:03.461Z,68.96
2022-09-15T03:59:34.457Z,69.04
2022-09-15T04:02:05.521Z,69.07
2022-09-15T04:04:36.978Z,69.12
2022-09-15T04:07:08.892Z,68.95
2022-09-15T04:09:40.316Z,69.00
2022-09-15T04:12:11.787Z,68.95
2022-09-15T04:14:42.953Z,69.00
2022-09-15T04:17:15.634Z,69.13
2022-09-15T04:19:46.655Z,69.01
2022-09-15T04:22:18.123Z,68.97
2022-09-15T04:24:49.698Z,69.06
2022-09-15T04:27:21.519Z,68.91
2022-09-15T04:29:55.013Z,68.91
2022-09-15T04:32:27.061Z,68.95
2022-09-15T04:35:33.004Z,68.81
2022-09-15T04:38:04.219Z,68.92
2022-09-15T04:40:35.454Z,68.64
2022-09-15T04:43:07.481Z,68.67
2022-09-15T04:45:38.407Z,68.72
2022-09-15T04:48:10.267Z,68.60
2022-09-15T04:50:41.747Z,68.56
2022-09-15T04:53:12.810Z,68.56
2022-09-15T04:55:43.699Z,68.54
2022-09-15T04:58:14.872Z,68.55
2022-09-15T05:00:45.971Z,68.45
2022-09-15T05:03:17.044Z,68.68
2022-09-15T05:05:50.427Z,68.57
2022-09-15T05:08:21.469Z,68.68
2022-09-15T05:10:52.334Z,68.68
2022-09-15T05:13:23.174Z,68.74
2022-09-15T05:15:54.430Z,68.70
2022-09-15T05:18:26.515Z,68.75
2022-09-15T05:21:02.711Z,68.69
2022-09-15T05:23:34.225Z,68.62
2022-09-15T05:26:06.983Z,68.59
2022-09-15T05:28:40.166Z,68.56
2022-09-15T05:31:18.172Z,68.55
2022-09-15T05:33:50.755Z,68.66
2022-09-15T05:36:25.244Z,68.55
2022-09-15T05:38:59.224Z,68.44
2022-09-15T05:41:31.511Z,68.33
2022-09-15T05:44:03.238Z,68.38
2022-09-15T05:46:34.342Z,68.30
2022-09-15T05:49:05.376Z,68.29
2022-09-15T05:51:36.641Z,68.29
2022-09-15T05:54:11.174Z,68.25
2022-09-15T05:56:42.341Z,68.09
2022-09-15T05:59:13.520Z,68.03
2022-09-15T06:01:44.571Z,67.81
2022-09-15T06:04:15.693Z,67.74
2022-09-15T06:06:47.113Z,67.69
2022-09-15T06:09:18.727Z,67.63
2022-09-15T06:11:50.028Z,67.45
2022-09-15T06:14:21.234Z,67.32
2022-09-15T06:16:52.081Z,67.23
2022-09-15T06:19:22.942Z,67.09
2022-09-15T06:21:54.220Z,67.00
2022-09-15T06:24:25.879Z,66.78
2022-09-15T06:26:58.709Z,66.64
2022-09-15T06:29:31.760Z,66.53
2022-09-15T06:32:05.610Z,66.48
2022-09-15T06:34:36.687Z,66.36
2022-09-15T06:37:08.589Z,66.42
2022-09-15T06:39:39.673Z,66.39
2022-09-15T06:42:13.796Z,66.46
2022-09-15T06:44:45.804Z,66.05
2022-09-15T06:47:20.075Z,65.68
2022-09-15T06:49:53.309Z,65.38
2022-09-15T06:52:24.231Z,64.99
2022-09-15T06:54:55.434Z,64.76
2022-09-15T06:57:26.383Z,64.42
2022-09-15T06:59:57.733Z,63.92
2022-09-15T07:02:29.241Z,63.56
2022-09-15T07:05:00.309Z,63.48
2022-09-15T07:07:32.589Z,63.32
2022-09-15T07:10:03.673Z,63.37
2022-09-15T07:12:34.612Z,63.56
2022-09-15T07:15:05.940Z,63.29
2022-09-15T07:17:37.535Z,62.86
2022-09-15T07:20:09.357Z,62.49
2022-09-15T07:22:41.150Z,62.21
2022-09-15T07:25:12.697Z,61.06
2022-09-15T07:27:43.707Z,60.01
2022-09-15T07:30:16.096Z,59.34
2022-09-15T07:32:52.856Z,59.15
2022-09-15T07:35:24.236Z,59.11
2022-09-15T07:38:08.508Z,58.35
2022-09-15T07:40:40.671Z,56.57
2022-09-15T07:43:12.023Z,55.11
2022-09-15T07:45:43.453Z,54.68
2022-09-15T07:48:14.646Z,53.96
2022-09-15T07:50:48.919Z,52.65
2022-09-15T07:53:19.955Z,51.65
2022-09-15T07:55:54.659Z,50.69
2022-09-15T07:58:25.985Z,49.51
2022-09-15T08:01:04.476Z,47.54
2022-09-15T08:06:40.292Z,45.65
2022-09-15T08:09:14.789Z,44.09
2022-09-15T08:11:47.059Z,42.83
2022-09-15T08:14:17.902Z,41.90
2022-09-15T08:16:48.831Z,41.09
2022-09-15T08:19:20.914Z,40.51
2022-09-15T08:21:54.555Z,40.07
2022-09-15T08:24:28.206Z,39.78
2022-09-15T08:26:59.028Z,38.80
2022-09-15T08:29:29.847Z,38.23
2022-09-15T08:32:00.701Z,37.47
2022-09-15T08:34:32.418Z,37.28
2022-09-15T08:37:04.292Z,36.92
2022-09-15T08:39:35.203Z,36.62
2022-09-15T08:42:07.575Z,36.20
2022-09-15T08:44:47.002Z,36.02
2022-09-15T08:47:22.201Z,35.87
2022-09-15T08:50:00.719Z,35.83
2022-09-15T08:52:36.505Z,35.81
2022-09-15T08:55:14.681Z,35.87
2022-09-15T08:57:46.078Z,35.33
2022-09-15T09:00:22.001Z,35.35
2022-09-15T09:03:18.908Z,35.22
2022-09-15T09:05:59.981Z,35.10
2022-09-15T09:08:52.986Z,35.18
2022-09-15T09:11:33.590Z,35.04
2022-09-15T09:14:14.085Z,34.98
2022-09-15T09:16:59.668Z,35.13
2022-09-15T09:19:52.331Z,35.13
2022-09-15T09:22:34.291Z,34.94
2022-09-15T09:25:26.147Z,35.22
2022-09-15T09:28:02.161Z,35.22
2022-09-15T09:37:36.541Z,34.51
2022-09-15T09:40:24.729Z,34.92
2022-09-15T09:43:11.433Z,34.89
2022-09-15T09:46:06.629Z,34.81
2022-09-15T09:48:41.964Z,34.63
2022-09-15T09:51:26.437Z,34.46
2022-09-15T09:54:47.288Z,34.27
2022-09-15T10:01:34.689Z,35.16
2022-09-15T10:04:25.896Z,35.17
2022-09-15T10:07:28.711Z,35.58
2022-09-15T10:10:02.251Z,35.99
2022-09-15T10:13:09.092Z,36.36
2022-09-15T10:17:01.175Z,36.77
2022-09-15T10:19:56.132Z,37.17
2022-09-15T10:22:45.057Z,37.12
2022-09-15T10:25:55.024Z,37.60
2022-09-15T10:28:37.787Z,37.78
2022-09-15T10:31:14.865Z,37.78
2022-09-15T10:34:19.691Z,37.53
2022-09-15T10:36:50.927Z,37.82
2022-09-15T10:40:11.471Z,37.95
2022-09-15T10:43:47.271Z,38.39
2022-09-15T10:46:44.086Z,38.73
2022-09-15T10:49:49.525Z,39.03
2022-09-15T10:52:30.708Z,39.11
2022-09-15T10:55:14.797Z,39.20
2022-09-15T10:58:02.944Z,39.20
2022-09-15T11:00:43.724Z,39.29
2022-09-15T11:03:36.870Z,39.29
2022-09-15T11:06:18.574Z,39.66
2022-09-15T11:09:14.265Z,40.14
2022-09-15T11:11:57.358Z,40.23
2022-09-15T11:14:48.975Z,40.40
2022-09-15T11:17:45.522Z,40.55
2022-09-15T11:20:51.857Z,40.77
2022-09-15T11:23:42.058Z,40.87
2022-09-15T11:26:18.645Z,41.02
2022-09-15T11:28:54.381Z,41.24
2022-09-15T11:31:43.949Z,41.57
2022-09-15T11:34:31.059Z,41.50
2022-09-15T11:37:16.320Z,41.89
2022-09-15T11:42:55.124Z,41.57
2022-09-15T11:45:54.566Z,41.62
2022-09-15T11:48:46.526Z,41.62
2022-09-15T11:51:27.421Z,41.73
2022-09-15T11:55:01.516Z,42.03
2022-09-15T11:57:16.869Z,41.94
2022-09-15T11:59:56.338Z,42.07
2022-09-15T12:02:37.819Z,42.09
2022-09-15T12:05:34.707Z,42.22
2022-09-15T12:08:12.887Z,42.15
2022-09-15T12:10:57.246Z,42.22
2022-09-15T12:13:32.325Z,42.25
2022-09-15T12:24:19.147Z,42.75
2022-09-15T12:26:50.894Z,42.88
2022-09-15T12:29:42.207Z,42.80
2022-09-15T12:32:23.395Z,42.81
2022-09-15T12:35:31.229Z,43.27
2022-09-15T12:38:03.265Z,43.37
2022-09-15T12:40:40.224Z,43.23
2022-09-15T12:43:23.750Z,43.25
2022-09-15T12:46:00.296Z,43.44
2022-09-15T12:48:34.572Z,43.67
2022-09-15T12:51:10.626Z,43.69
2022-09-15T12:53:56.680Z,43.90
2022-09-15T12:56:29.877Z,44.21
2022-09-15T12:59:07.214Z,44.44
2022-09-15T13:01:50.687Z,44.60
2022-09-15T13:04:58.079Z,44.84
2022-09-15T13:07:55.971Z,44.48
2022-09-15T13:10:40.122Z,44.68
2022-09-15T13:13:23.808Z,44.80
2022-09-15T13:15:56.664Z,44.84
2022-09-15T13:18:31.131Z,44.70
2022-09-15T13:21:08.883Z,44.59
2022-09-15T13:23:43.029Z,44.45
2022-09-15T13:26:26.577Z,44.51
2022-09-15T13:29:01.085Z,44.49
2022-09-15T13:31:40.318Z,44.75
2022-09-15T13:35:04.905Z,44.72
2022-09-15T13:38:22.055Z,44.90
2022-09-15T13:41:26.088Z,45.06
2022-09-15T13:44:21.582Z,45.16
2022-09-15T13:47:04.414Z,45.22
2022-09-15T13:50:10.794Z,45.15
2022-09-15T13:53:16.148Z,45.29
2022-09-15T13:55:48.735Z,45.50
2022-09-15T14:01:15.767Z,45.67
2022-09-15T14:03:51.069Z,45.82
2022-09-15T14:06:37.844Z,45.99
2022-09-15T14:10:06.073Z,46.03
2022-09-15T14:12:39.637Z,46.25
2022-09-15T14:15:21.164Z,46.25
2022-09-15T14:18:21.059Z,46.38
2022-09-15T14:21:03.456Z,46.23
2022-09-15T14:23:45.342Z,46.21
2022-09-15T14:26:18.329Z,46.41
2022-09-15T14:28:54.141Z,46.38
2022-09-15T14:31:33.823Z,46.32
2022-09-15T14:34:08.253Z,46.62
2022-09-15T14:36:39.655Z,46.50
2022-09-15T14:39:26.028Z,46.70
2022-09-15T14:47:32.705Z,47.19
2022-09-15T14:50:14.420Z,47.25
2022-09-15T14:52:48.770Z,47.25
2022-09-15T14:55:27.887Z,47.21
2022-09-15T14:58:23.127Z,47.20
2022-09-15T15:01:01.697Z,47.16
2022-09-15T15:03:39.640Z,47.28
2022-09-15T15:06:29.108Z,47.16
2022-09-15T15:09:21.558Z,47.23
2022-09-15T15:20:52.076Z,47.22
2022-09-15T15:23:29.295Z,47.48
2022-09-15T15:26:40.105Z,47.31
2022-09-15T15:29:44.222Z,47.40
2022-09-15T15:32:28.708Z,47.69
2022-09-15T15:35:06.426Z,47.88
2022-09-15T15:37:39.695Z,47.99
2022-09-15T15:40:27.278Z,48.19
2022-09-15T15:43:05.788Z,48.37
2022-09-15T15:45:50.134Z,48.63
2022-09-15T15:48:21.736Z,48.63
2022-09-15T15:50:54.675Z,48.77
2022-09-15T15:53:30.266Z,48.96
2022-09-15T15:56:01.562Z,49.10
2022-09-15T15:58:33.168Z,49.24
2022-09-15T16:01:04.937Z,49.48
2022-09-15T16:03:39.266Z,49.66
2022-09-15T16:06:14.080Z,49.66
2022-09-15T16:08:54.145Z,49.79
2022-09-15T16:11:26.151Z,49.77
2022-09-15T16:14:20.979Z,49.78
2022-09-15T16:17:53.326Z,49.92
2022-09-15T16:21:12.324Z,49.96
2022-09-15T16:24:57.722Z,50.04
2022-09-15T16:27:30.327Z,50.10
2022-09-15T16:30:22.819Z,50.15
2022-09-15T16:33:09.637Z,50.27
2022-09-15T16:35:45.766Z,50.29
2022-09-15T16:38:26.904Z,50.48
2022-09-15T16:40:58.153Z,50.57
2022-09-15T16:43:29.634Z,50.74
2022-09-15T16:46:10.426Z,50.78
2022-09-15T16:48:44.486Z,50.82
2022-09-15T16:51:30.937Z,51.05
2022-09-15T16:54:02.700Z,51.09
2022-09-15T16:56:52.038Z,51.31
2022-09-15T16:59:36.857Z,51.56
2022-09-15T17:02:20.131Z,51.77
2022-09-15T17:05:01.121Z,51.97
2022-09-15T17:07:36.507Z,52.12
2022-09-15T17:10:11.827Z,52.39
2022-09-15T17:12:57.511Z,52.52
2022-09-15T17:15:35.110Z,52.66
2022-09-15T17:18:09.391Z,52.77
2022-09-15T17:20:46.347Z,53.00
2022-09-15T17:23:31.476Z,53.09
2022-09-15T17:26:15.437Z,53.15
2022-09-15T17:32:18.776Z,53.46
2022-09-15T17:34:49.708Z,53.60
2022-09-15T17:37:28.914Z,53.83
2022-09-15T17:40:01.274Z,54.00
2022-09-15T17:42:34.249Z,54.15
2022-09-15T17:45:32.981Z,54.23
2022-09-15T17:48:05.947Z,54.42
2022-09-15T17:50:42.015Z,54.52
2022-09-15T17:53:22.776Z,54.65
2022-09-15T17:55:55.889Z,54.79
2022-09-15T17:58:34.242Z,54.97
2022-09-15T18:01:06.539Z,55.10
2022-09-15T18:03:42.463Z,55.20
2022-09-15T18:06:40.264Z,55.27
2022-09-15T18:09:15.532Z,55.55
2022-09-15T18:11:46.762Z,55.78
2022-09-15T18:14:42.283Z,55.69
2022-09-15T18:18:04.130Z,55.86
2022-09-15T18:21:27.070Z,56.06
2022-09-15T18:23:58.709Z,56.19
2022-09-15T18:26:29.773Z,56.39
2022-09-15T18:29:02.265Z,56.47
2022-09-15T18:31:33.418Z,56.55
2022-09-15T18:34:06.721Z,56.75
2022-09-15T18:36:38.347Z,56.81
2022-09-15T18:42:29.770Z,57.11
2022-09-15T18:45:03.303Z,57.20
2022-09-15T18:47:38.236Z,57.35
2022-09-15T18:50:12.206Z,57.34
2022-09-15T18:53:10.141Z,57.54
2022-09-15T18:55:43.286Z,57.66
2022-09-15T18:58:17.738Z,57.62
2022-09-15T19:00:50.194Z,57.67
2022-09-15T19:03:24.415Z,57.78
2022-09-15T19:23:51.512Z,57.38
2022-09-15T19:26:21.404Z,57.29
2022-09-15T19:28:51.611Z,57.35
2022-09-15T19:31:20.107Z,57.45
2022-09-15T19:33:48.691Z,57.72
2022-09-15T19:36:27.847Z,57.75
2022-09-15T19:38:57.468Z,57.87
2022-09-15T19:41:25.906Z,58.01
2022-09-15T19:43:54.338Z,58.03
2022-09-15T19:46:24.486Z,58.11
2022-09-15T19:48:54.606Z,58.08
2022-09-15T19:51:23.674Z,58.25
2022-09-15T19:53:56.424Z,58.27
2022-09-15T20:05:57.903Z,58.80
2022-09-15T20:20:22.620Z,58.41
2022-09-15T20:22:53.607Z,58.30
2022-09-15T20:25:28.053Z,58.30
2022-09-15T20:28:01.406Z,58.48
2022-09-15T20:33:50.597Z,58.58
2022-09-15T20:36:24.481Z,58.73
2022-09-15T20:38:57.790Z,58.84
2022-09-15T20:41:31.917Z,58.86
2022-09-15T20:44:11.032Z,59.01
2022-09-15T20:46:45.600Z,59.16
2022-09-15T20:49:17.263Z,59.13
2022-09-15T20:52:50.005Z,59.29
2022-09-15T20:55:21.375Z,59.60
2022-09-15T20:57:53.100Z,59.65
2022-09-15T21:00:24.972Z,59.76
2022-09-15T21:02:56.051Z,59.93
2022-09-15T21:05:27.252Z,59.98
2022-09-15T21:08:31.555Z,60.19
2022-09-15T21:11:03.005Z,60.22
2022-09-15T21:13:37.612Z,60.34
2022-09-15T21:16:10.567Z,60.53
2022-09-15T21:18:43.611Z,60.71
2022-09-15T21:21:16.856Z,60.61
2022-09-15T21:23:49.661Z,60.78
2022-09-15T21:26:25.341Z,60.95
2022-09-15T21:28:58.913Z,61.04
2022-09-15T21:31:32.290Z,61.13
2022-09-15T21:34:04.665Z,61.30
2022-09-15T21:36:36.068Z,61.44
2022-09-15T21:39:07.240Z,61.49
2022-09-15T21:41:38.303Z,61.62
2022-09-15T21:44:10.011Z,61.66
2022-09-15T21:46:41.059Z,61.79
2022-09-15T21:49:12.256Z,61.81
2022-09-15T21:51:43.337Z,61.91
2022-09-15T21:54:14.928Z,61.93
2022-09-15T21:56:46.045Z,61.95
2022-09-15T21:59:18.556Z,62.22
2022-09-15T22:01:53.038Z,62.32
2022-09-15T22:04:24.494Z,62.39
2022-09-15T22:06:55.351Z,62.57
2022-09-15T22:09:26.364Z,62.46
2022-09-15T22:11:57.309Z,62.63
2022-09-15T22:14:28.325Z,62.68
2022-09-15T22:16:59.150Z,62.81
2022-09-15T22:19:30.400Z,62.72
2022-09-15T22:22:01.312Z,62.99
2022-09-15T22:24:32.873Z,62.94
2022-09-15T22:27:03.655Z,63.02
2022-09-15T22:29:34.494Z,63.05
2022-09-15T22:32:06.107Z,63.10
2022-09-15T22:34:36.949Z,62.99
2022-09-15T22:37:07.824Z,63.20
2022-09-15T22:39:57.991Z,63.38
2022-09-15T22:42:29.898Z,63.38
2022-09-15T22:45:00.828Z,63.39
2022-09-15T22:47:33.768Z,63.57
2022-09-15T22:50:05.250Z,63.54
2022-09-15T22:52:36.134Z,63.58
2022-09-15T22:55:08.078Z,63.68
2022-09-15T22:57:39.642Z,63.80
2022-09-15T23:00:12.981Z,63.71
2022-09-15T23:02:44.105Z,63.93
2022-09-15T23:05:15.248Z,63.99
2022-09-15T23:07:46.113Z,64.08
2022-09-15T23:10:17.160Z,64.09
2022-09-15T23:12:47.991Z,64.11
2022-09-15T23:15:19.926Z,64.22
2022-09-15T23:17:50.819Z,64.23
2022-09-15T23:20:33.792Z,64.34
2022-09-15T23:23:04.675Z,64.33
2022-09-15T23:25:35.492Z,64.33
2022-09-15T23:28:06.401Z,64.32
2022-09-15T23:30:39.246Z,64.44
2022-09-15T23:33:10.103Z,64.47
2022-09-15T23:35:41.016Z,64.69
2022-09-15T23:38:11.864Z,64.79
2022-09-15T23:40:44.904Z,64.96
2022-09-15T23:43:16.408Z,64.92
2022-09-15T23:45:48.305Z,64.90
2022-09-15T23:48:19.093Z,64.99
2022-09-15T23:50:49.930Z,65.03
2022-09-15T23:53:21.592Z,65.14
2022-09-15T23:55:52.591Z,65.09
2022-09-15T23:58:23.830Z,65.18
